createdAt,value
2023-07-06T00:04:21.017Z,15.07
2023-07-06T00:06:50.144Z,17.88
2023-07-06T00:09:20.194Z,21.85
2023-07-06T00:11:50.046Z,25.88
2023-07-06T00:14:19.127Z,19.95
2023-07-06T00:16:53.971Z,15.32
2023-07-06T00:19:23.059Z,10.80
2023-07-06T00:21:52.966Z,12.13
2023-07-06T00:24:21.933Z,44.67
2023-07-06T00:26:50.954Z,19.40
2023-07-06T00:29:20.079Z,15.57
2023-07-06T00:32:06.193Z,15.10
2023-07-06T00:34:36.594Z,32.97
2023-07-06T00:37:05.746Z,8.60
2023-07-06T00:39:34.778Z,11.15
2023-07-06T00:42:05.675Z,20.33
2023-07-06T00:44:55.423Z,9.30
2023-07-06T00:47:50.857Z,15.57
2023-07-06T00:50:23.286Z,17.20
2023-07-06T00:53:01.023Z,15.90
2023-07-06T00:55:38.813Z,24.52
2023-07-06T00:58:30.748Z,28.85
2023-07-06T01:01:05.860Z,32.63
2023-07-06T01:03:46.493Z,14.07
2023-07-06T01:06:24.774Z,19.92
2023-07-06T01:08:55.864Z,9.65
2023-07-06T01:11:24.915Z,33.70
2023-07-06T01:13:56.422Z,9.23
2023-07-06T01:16:31.399Z,23.38
2023-07-06T01:19:15.830Z,12.25
2023-07-06T01:22:15.257Z,12.95
2023-07-06T01:25:09.129Z,16.10
2023-07-06T01:27:51.372Z,10.32
2023-07-06T01:30:53.575Z,9.13
2023-07-06T01:33:29.259Z,11.45
2023-07-06T01:36:30.915Z,11.02
2023-07-06T01:39:26.127Z,6.78
2023-07-06T01:42:10.765Z,9.55
2023-07-06T01:44:43.931Z,20.05
2023-07-06T01:47:13.489Z,16.02
2023-07-06T01:49:42.895Z,8.50
2023-07-06T01:52:29.204Z,7.82
2023-07-06T01:55:16.163Z,6.57
2023-07-06T01:58:25.685Z,9.68
2023-07-06T02:01:05.743Z,8.07
2023-07-06T02:03:35.113Z,25.30
2023-07-06T02:06:04.176Z,10.52
2023-07-06T02:08:33.657Z,4.85
2023-07-06T02:11:03.730Z,7.13
2023-07-06T02:13:35.578Z,15.48
2023-07-06T02:16:08.124Z,13.70
2023-07-06T02:18:37.130Z,13.63
2023-07-06T02:21:06.959Z,8.52
2023-07-06T02:23:36.080Z,7.10
2023-07-06T02:26:05.903Z,9.20
2023-07-06T02:28:37.378Z,5.85
2023-07-06T02:31:07.584Z,6.60
2023-07-06T02:33:37.053Z,8.48
2023-07-06T02:36:06.733Z,5.22
2023-07-06T02:38:36.330Z,3.97
2023-07-06T02:41:08.635Z,6.45
2023-07-06T02:43:37.749Z,7.70
2023-07-06T02:46:07.208Z,4.57
2023-07-06T02:48:37.222Z,5.55
2023-07-06T02:51:06.236Z,10.00
2023-07-06T02:53:35.256Z,6.03
2023-07-06T02:56:05.603Z,3.78
2023-07-06T02:58:38.686Z,15.52
2023-07-06T03:01:07.745Z,8.82
2023-07-06T03:03:36.787Z,4.72
2023-07-06T03:06:05.904Z,8.27
2023-07-06T03:08:34.908Z,6.22
2023-07-06T03:11:03.901Z,7.45
2023-07-06T03:13:33.556Z,3.60
2023-07-06T03:16:02.949Z,9.98
2023-07-06T03:18:32.657Z,5.60
2023-07-06T03:21:03.047Z,4.97
2023-07-06T03:23:32.093Z,7.05
2023-07-06T03:26:01.065Z,4.93
2023-07-06T03:28:31.327Z,5.95
2023-07-06T03:31:01.415Z,4.15
2023-07-06T03:33:30.824Z,6.47
2023-07-06T03:36:01.191Z,10.05
2023-07-06T03:38:32.236Z,15.15
2023-07-06T03:41:06.045Z,9.07
2023-07-06T03:43:35.988Z,10.73
2023-07-06T03:46:06.139Z,7.22
2023-07-06T03:48:35.190Z,8.07
2023-07-06T03:51:07.434Z,7.68
2023-07-06T03:53:40.228Z,8.55
2023-07-06T03:56:12.559Z,7.18
2023-07-06T03:58:41.638Z,13.15
2023-07-06T04:01:10.916Z,5.97
2023-07-06T04:03:40.131Z,11.02
2023-07-06T04:06:09.223Z,5.50
2023-07-06T04:08:38.527Z,10.20
2023-07-06T04:11:07.604Z,7.13
2023-07-06T04:13:36.759Z,8.75
2023-07-06T04:16:06.427Z,12.10
2023-07-06T04:18:35.497Z,8.93
2023-07-06T04:21:04.586Z,7.72
2023-07-06T04:23:33.628Z,6.55
2023-07-06T04:26:07.576Z,10.90
2023-07-06T04:28:36.650Z,12.98
2023-07-06T04:31:07.939Z,7.60
2023-07-06T04:33:37.081Z,7.93
2023-07-06T04:36:06.567Z,6.50
2023-07-06T04:38:36.777Z,24.42
2023-07-06T04:41:07.105Z,7.15
2023-07-06T04:43:36.270Z,7.90
2023-07-06T04:46:06.133Z,4.63
2023-07-06T04:48:38.572Z,9.68
2023-07-06T04:51:07.563Z,11.45
2023-07-06T04:53:36.526Z,3.42
2023-07-06T04:56:05.778Z,7.45
2023-07-06T04:58:34.869Z,17.13
2023-07-06T05:01:09.452Z,5.90
2023-07-06T05:03:38.629Z,5.65
2023-07-06T05:06:12.021Z,3.17
2023-07-06T05:11:10.994Z,9.07
2023-07-06T05:13:40.127Z,4.28
2023-07-06T05:16:09.196Z,4.35
2023-07-06T05:18:38.273Z,6.22
2023-07-06T05:21:07.362Z,9.52
2023-07-06T05:23:36.820Z,4.03
2023-07-06T05:26:06.436Z,8.30
2023-07-06T05:28:35.854Z,8.90
2023-07-06T05:31:06.358Z,8.07
2023-07-06T05:33:35.350Z,9.35
2023-07-06T05:36:04.779Z,4.90
2023-07-06T05:38:33.806Z,2.97
2023-07-06T05:41:06.158Z,4.80
2023-07-06T05:43:35.194Z,6.25
2023-07-06T05:46:04.286Z,12.60
2023-07-06T05:48:33.401Z,11.27
2023-07-06T05:51:02.426Z,6.78
2023-07-06T05:53:31.434Z,5.45
2023-07-06T05:56:01.046Z,9.27
2023-07-06T05:58:30.136Z,4.15
2023-07-06T06:00:59.477Z,10.70
2023-07-06T06:03:28.634Z,7.88
2023-07-06T06:05:58.367Z,10.00
2023-07-06T06:08:27.834Z,5.90
2023-07-06T06:10:57.817Z,11.43
2023-07-06T06:13:29.520Z,8.32
2023-07-06T06:15:59.444Z,7.05
2023-07-06T06:18:29.198Z,8.55
2023-07-06T06:21:00.803Z,7.82
2023-07-06T06:23:29.801Z,5.10
2023-07-06T06:25:59.149Z,4.75
2023-07-06T06:28:28.922Z,4.63
2023-07-06T06:30:57.853Z,5.63
2023-07-06T06:33:26.874Z,3.85
2023-07-06T06:35:58.670Z,3.65
2023-07-06T06:38:28.575Z,4.32
2023-07-06T06:40:59.598Z,15.85
2023-07-06T06:43:30.319Z,6.45
2023-07-06T06:45:59.704Z,6.75
2023-07-06T06:48:28.941Z,4.40
2023-07-06T06:51:01.507Z,3.67
2023-07-06T06:53:30.708Z,10.23
2023-07-06T06:56:00.118Z,7.85
2023-07-06T06:58:29.410Z,8.80
2023-07-06T07:01:02.878Z,12.75
2023-07-06T07:03:32.402Z,6.32
2023-07-06T07:06:15.864Z,4.35
2023-07-06T07:11:23.821Z,10.13
2023-07-06T07:13:55.238Z,5.40
2023-07-06T07:16:26.034Z,8.27
2023-07-06T07:18:56.716Z,5.72
2023-07-06T07:21:26.033Z,7.88
2023-07-06T07:23:55.039Z,5.05
2023-07-06T07:26:26.295Z,3.53
2023-07-06T07:28:55.378Z,6.57
2023-07-06T07:31:25.148Z,4.43
2023-07-06T07:33:54.365Z,3.50
2023-07-06T07:36:24.376Z,5.75
2023-07-06T07:38:55.905Z,5.28
2023-07-06T07:41:25.282Z,3.70
2023-07-06T07:43:54.563Z,3.53
2023-07-06T07:46:25.011Z,3.70
2023-07-06T07:48:55.484Z,5.72
2023-07-06T07:51:29.157Z,5.70
2023-07-06T07:53:58.830Z,3.83
2023-07-06T07:56:29.728Z,6.43
2023-07-06T07:58:58.807Z,3.60
2023-07-06T08:01:30.973Z,6.40
2023-07-06T08:04:00.153Z,6.20
2023-07-06T08:06:29.218Z,6.00
2023-07-06T08:08:58.693Z,3.53
2023-07-06T08:11:28.060Z,5.40
2023-07-06T08:13:59.071Z,8.70
2023-07-06T08:16:28.547Z,4.03
2023-07-06T08:19:13.369Z,7.05
2023-07-06T08:22:04.632Z,6.80
2023-07-06T08:24:35.919Z,4.00
2023-07-06T08:27:05.528Z,6.80
2023-07-06T08:29:34.473Z,3.20
2023-07-06T08:32:06.721Z,4.10
2023-07-06T08:34:35.774Z,8.40
2023-07-06T08:37:04.836Z,4.63
2023-07-06T08:39:35.753Z,15.38
2023-07-06T08:42:05.070Z,5.07
2023-07-06T08:44:34.118Z,7.07
2023-07-06T08:47:03.250Z,5.43
2023-07-06T08:49:37.738Z,10.02
2023-07-06T08:52:08.397Z,6.55
2023-07-06T08:54:41.035Z,5.57
2023-07-06T08:57:19.890Z,3.85
2023-07-06T08:59:51.003Z,3.05
2023-07-06T09:02:30.562Z,5.45
2023-07-06T09:05:09.931Z,9.63
2023-07-06T09:07:42.240Z,4.00
2023-07-06T09:10:28.248Z,2.90
2023-07-06T09:13:24.890Z,3.08
2023-07-06T09:16:05.515Z,5.80
2023-07-06T09:18:34.574Z,6.18
2023-07-06T09:21:04.482Z,4.47
2023-07-06T09:23:34.764Z,2.55
2023-07-06T09:26:17.296Z,3.65
2023-07-06T09:28:49.595Z,3.70
2023-07-06T09:31:23.770Z,8.82
2023-07-06T09:33:55.511Z,1.92
2023-07-06T09:36:28.315Z,4.97
2023-07-06T09:39:06.303Z,2.38
2023-07-06T09:41:35.442Z,2.67
2023-07-06T09:44:08.141Z,4.18
2023-07-06T09:46:39.705Z,1.77
2023-07-06T09:49:37.777Z,3.65
2023-07-06T09:52:12.623Z,2.65
2023-07-06T09:55:16.548Z,2.33
2023-07-06T09:57:46.961Z,2.92
2023-07-06T10:00:19.870Z,2.15
2023-07-06T10:03:16.297Z,5.90
2023-07-06T10:05:55.710Z,5.65
2023-07-06T10:08:43.278Z,3.20
2023-07-06T10:11:17.323Z,4.85
2023-07-06T10:13:59.044Z,2.42
2023-07-06T10:16:45.044Z,3.88
2023-07-06T10:19:25.789Z,7.18
2023-07-06T10:22:21.223Z,8.00
2023-07-06T10:25:05.551Z,5.15
2023-07-06T10:27:40.753Z,4.13
2023-07-06T10:30:22.288Z,6.20
2023-07-06T10:32:55.992Z,4.22
2023-07-06T10:35:32.817Z,3.17
2023-07-06T10:38:02.206Z,6.97
2023-07-06T10:40:32.222Z,3.83
2023-07-06T10:43:23.782Z,7.63
2023-07-06T10:45:55.157Z,5.82
2023-07-06T10:48:25.057Z,5.97
2023-07-06T10:51:09.082Z,9.23
2023-07-06T10:53:45.673Z,11.43
2023-07-06T10:56:14.589Z,9.55
2023-07-06T10:59:03.484Z,5.75
2023-07-06T11:01:53.423Z,10.27
2023-07-06T11:04:46.484Z,5.55
2023-07-06T11:07:35.273Z,7.78
2023-07-06T11:10:22.430Z,6.35
2023-07-06T11:13:00.019Z,5.97
2023-07-06T11:16:00.536Z,5.03
2023-07-06T11:18:48.979Z,7.03
2023-07-06T11:21:40.971Z,15.13
2023-07-06T11:24:18.436Z,17.13
2023-07-06T11:26:59.179Z,17.48
2023-07-06T11:29:32.750Z,18.52
2023-07-06T11:35:07.694Z,16.67
2023-07-06T11:38:14.947Z,22.50
2023-07-06T11:40:56.280Z,13.15
2023-07-06T11:43:37.745Z,22.67
2023-07-06T11:46:28.126Z,13.95
2023-07-06T11:49:33.739Z,18.42
2023-07-06T11:52:07.290Z,15.70
2023-07-06T11:54:50.764Z,18.80
2023-07-06T11:57:46.918Z,18.98
2023-07-06T12:00:28.813Z,18.40
2023-07-06T12:03:05.776Z,20.55
2023-07-06T12:05:41.391Z,16.58
2023-07-06T12:08:22.704Z,23.08
2023-07-06T12:10:59.313Z,15.85
2023-07-06T12:13:35.634Z,19.63
2023-07-06T12:16:27.830Z,20.02
2023-07-06T12:19:07.885Z,23.98
2023-07-06T12:22:03.125Z,29.00
2023-07-06T12:24:32.444Z,20.75
2023-07-06T12:27:04.807Z,18.23
2023-07-06T12:29:35.124Z,23.88
2023-07-06T12:32:10.102Z,24.23
2023-07-06T12:34:43.233Z,22.45
2023-07-06T12:37:15.749Z,14.63
2023-07-06T12:39:47.542Z,12.63
2023-07-06T12:42:19.416Z,16.17
2023-07-06T12:44:53.509Z,25.50
2023-07-06T12:47:24.325Z,14.52
2023-07-06T12:49:57.603Z,12.82
2023-07-06T12:52:26.852Z,16.42
2023-07-06T12:54:58.801Z,21.73
2023-07-06T12:57:35.243Z,19.38
2023-07-06T13:00:26.919Z,13.57
2023-07-06T13:02:59.394Z,21.23
2023-07-06T13:05:31.022Z,17.45
2023-07-06T13:08:00.251Z,23.42
2023-07-06T13:10:34.218Z,20.55
2023-07-06T13:13:03.967Z,11.75
2023-07-06T13:15:48.304Z,15.13
2023-07-06T13:18:20.034Z,21.77
2023-07-06T13:20:52.702Z,12.73
2023-07-06T13:23:22.625Z,20.77
2023-07-06T13:25:53.964Z,18.90
2023-07-06T13:28:23.337Z,13.27
2023-07-06T13:30:53.886Z,19.70
2023-07-06T13:33:23.042Z,20.17
2023-07-06T13:35:52.198Z,18.67
2023-07-06T13:38:21.273Z,20.10
2023-07-06T13:40:51.309Z,21.20
2023-07-06T13:43:25.694Z,19.02
2023-07-06T13:45:54.733Z,17.75
2023-07-06T13:48:25.319Z,17.75
2023-07-06T13:50:54.344Z,13.93
2023-07-06T13:53:23.376Z,17.48
2023-07-06T13:55:57.529Z,15.18
2023-07-06T13:58:28.379Z,12.77
2023-07-06T14:00:58.480Z,12.43
2023-07-06T14:03:34.592Z,12.63
2023-07-06T14:06:04.320Z,18.48
2023-07-06T14:08:34.781Z,20.73
2023-07-06T14:11:05.309Z,14.23
2023-07-06T14:13:35.269Z,18.17
2023-07-06T14:16:04.696Z,21.02
2023-07-06T14:18:34.252Z,15.10
2023-07-06T14:21:07.527Z,16.80
2023-07-06T14:23:37.403Z,14.63
2023-07-06T14:26:06.620Z,15.30
2023-07-06T14:28:35.847Z,9.27
2023-07-06T14:31:07.938Z,14.77
2023-07-06T14:33:37.214Z,16.42
2023-07-06T14:36:06.398Z,13.23
2023-07-06T14:38:35.400Z,13.30
2023-07-06T14:41:04.751Z,29.27
2023-07-06T14:43:34.144Z,19.63
2023-07-06T14:46:04.059Z,20.05
2023-07-06T14:48:33.144Z,24.83
2023-07-06T14:51:12.079Z,29.70
2023-07-06T14:53:41.351Z,19.08
2023-07-06T14:56:10.752Z,20.60
2023-07-06T14:58:39.779Z,13.02
2023-07-06T15:01:08.928Z,13.75
2023-07-06T15:03:37.950Z,15.73
2023-07-06T15:06:09.361Z,19.80
2023-07-06T15:08:38.348Z,23.83
2023-07-06T15:11:07.318Z,17.40
2023-07-06T15:13:36.461Z,10.57
2023-07-06T15:16:05.699Z,15.15
2023-07-06T15:18:34.829Z,28.27
2023-07-06T15:21:16.285Z,20.67
2023-07-06T15:23:45.544Z,19.35
2023-07-06T15:26:14.661Z,16.45
2023-07-06T15:28:43.781Z,17.55
2023-07-06T15:31:13.040Z,14.02
2023-07-06T15:33:42.070Z,19.95
2023-07-06T15:36:11.045Z,16.33
2023-07-06T15:38:40.072Z,16.75
2023-07-06T15:41:09.303Z,18.30
2023-07-06T15:43:38.288Z,20.35
2023-07-06T15:46:07.589Z,15.57
2023-07-06T15:48:36.735Z,23.10
2023-07-06T15:51:05.960Z,17.33
2023-07-06T15:53:35.045Z,17.85
2023-07-06T15:56:06.625Z,21.55
2023-07-06T15:58:38.963Z,20.55
2023-07-06T16:01:09.088Z,17.83
2023-07-06T16:03:38.647Z,15.00
2023-07-06T16:06:07.671Z,18.08
2023-07-06T16:08:36.764Z,21.77
2023-07-06T16:11:07.019Z,16.45
2023-07-06T16:13:36.127Z,20.52
2023-07-06T16:16:05.489Z,22.98
2023-07-06T16:18:34.474Z,22.63
2023-07-06T16:21:04.012Z,15.98
2023-07-06T16:23:33.494Z,23.30
2023-07-06T16:26:11.193Z,16.55
2023-07-06T16:28:42.031Z,15.10
2023-07-06T16:31:12.000Z,21.52
2023-07-06T16:33:43.250Z,24.27
2023-07-06T16:36:13.755Z,18.90
2023-07-06T16:38:42.925Z,20.92
2023-07-06T16:41:13.682Z,14.63
2023-07-06T16:43:42.798Z,14.38
2023-07-06T16:46:12.212Z,22.20
2023-07-06T16:48:41.246Z,25.75
2023-07-06T16:51:10.788Z,21.00
2023-07-06T16:53:41.917Z,20.75
2023-07-06T16:56:10.989Z,18.80
2023-07-06T16:58:41.050Z,18.63
2023-07-06T17:01:12.798Z,17.05
2023-07-06T17:03:42.081Z,25.60
2023-07-06T17:06:12.804Z,19.38
2023-07-06T17:08:41.887Z,19.50
2023-07-06T17:11:13.784Z,22.73
2023-07-06T17:13:42.921Z,17.10
2023-07-06T17:16:12.102Z,22.35
2023-07-06T17:18:41.083Z,16.58
2023-07-06T17:21:12.382Z,21.17
2023-07-06T17:23:41.320Z,17.42
2023-07-06T17:26:10.420Z,18.27
2023-07-06T17:28:39.457Z,25.95
2023-07-06T17:31:14.427Z,21.80
2023-07-06T17:33:43.539Z,21.00
2023-07-06T17:36:12.990Z,21.75
2023-07-06T17:38:42.194Z,17.23
2023-07-06T17:41:13.739Z,19.73
2023-07-06T17:43:43.075Z,18.23
2023-07-06T17:46:12.173Z,16.90
2023-07-06T17:48:41.239Z,17.73
2023-07-06T17:51:12.232Z,20.45
2023-07-06T17:53:41.202Z,19.55
2023-07-06T17:56:10.345Z,20.95
2023-07-06T17:58:39.355Z,21.95
2023-07-06T18:01:09.510Z,15.32
2023-07-06T18:03:38.599Z,20.40
2023-07-06T18:06:08.062Z,18.33
2023-07-06T18:08:37.142Z,16.63
2023-07-06T18:11:06.820Z,14.45
2023-07-06T18:13:38.372Z,23.58
2023-07-06T18:16:07.768Z,16.60
2023-07-06T18:18:36.733Z,13.93
2023-07-06T18:21:07.134Z,17.48
2023-07-06T18:23:37.267Z,15.07
2023-07-06T18:26:06.457Z,14.95
2023-07-06T18:28:35.920Z,20.13
2023-07-06T18:31:05.294Z,19.33
2023-07-06T18:33:34.248Z,22.40
2023-07-06T18:36:05.481Z,24.63
2023-07-06T18:38:34.564Z,16.23
2023-07-06T18:41:05.011Z,14.77
2023-07-06T18:43:34.194Z,15.35
2023-07-06T18:46:03.297Z,19.73
2023-07-06T18:48:33.969Z,17.40
2023-07-06T18:51:03.051Z,15.88
2023-07-06T18:53:44.451Z,14.25
2023-07-06T18:56:14.045Z,15.60
2023-07-06T18:58:43.309Z,13.93
2023-07-06T19:01:13.174Z,14.18
2023-07-06T19:03:42.997Z,12.30
2023-07-06T19:06:17.884Z,13.80
2023-07-06T19:08:49.348Z,15.20
2023-07-06T19:11:18.904Z,15.30
2023-07-06T19:13:47.979Z,18.48
2023-07-06T19:16:18.157Z,16.48
2023-07-06T19:18:47.468Z,14.45
2023-07-06T19:21:16.465Z,14.00
2023-07-06T19:23:45.853Z,14.90
2023-07-06T19:26:15.897Z,21.63
2023-07-06T19:28:45.200Z,17.20
2023-07-06T19:31:14.173Z,17.23
2023-07-06T19:33:43.238Z,19.67
2023-07-06T19:36:13.086Z,20.85
2023-07-06T19:38:42.359Z,18.67
2023-07-06T19:41:11.802Z,17.83
2023-07-06T19:43:40.900Z,19.58
2023-07-06T19:48:43.558Z,17.80
2023-07-06T19:51:12.541Z,18.63
2023-07-06T19:53:41.831Z,20.58
2023-07-06T19:56:10.831Z,16.85
2023-07-06T19:58:39.918Z,17.90
2023-07-06T20:01:11.046Z,21.13
2023-07-06T20:03:40.065Z,18.70
2023-07-06T20:06:09.285Z,16.13
2023-07-06T20:08:38.397Z,18.40
2023-07-06T20:11:08.062Z,14.80
2023-07-06T20:13:38.579Z,22.10
2023-07-06T20:16:08.935Z,15.73
2023-07-06T20:18:38.046Z,16.65
2023-07-06T20:21:07.066Z,15.65
2023-07-06T20:23:36.032Z,13.45
2023-07-06T20:26:05.054Z,23.25
2023-07-06T20:28:34.088Z,16.00
2023-07-06T20:31:05.276Z,19.75
2023-07-06T20:33:34.874Z,16.42
2023-07-06T20:36:08.502Z,15.13
2023-07-06T20:38:38.235Z,19.38
2023-07-06T20:41:07.506Z,14.40
2023-07-06T20:43:36.705Z,18.58
2023-07-06T20:46:06.265Z,13.35
2023-07-06T20:48:35.341Z,15.70
2023-07-06T20:51:04.611Z,16.10
2023-07-06T20:53:33.589Z,11.60
2023-07-06T20:56:02.621Z,13.88
2023-07-06T20:58:31.633Z,15.00
2023-07-06T21:01:00.947Z,13.77
2023-07-06T21:03:32.660Z,16.90
2023-07-06T21:06:01.827Z,16.25
2023-07-06T21:08:31.589Z,17.35
2023-07-06T21:11:01.023Z,12.88
2023-07-06T21:13:31.877Z,12.57
2023-07-06T21:16:07.913Z,15.07
2023-07-06T21:18:36.987Z,16.88
2023-07-06T21:21:06.105Z,15.88
2023-07-06T21:23:35.449Z,19.05
2023-07-06T21:26:04.466Z,14.75
2023-07-06T21:28:33.471Z,20.58
2023-07-06T21:31:02.442Z,14.48
2023-07-06T21:33:31.460Z,15.43
2023-07-06T21:36:04.109Z,16.30
2023-07-06T21:38:33.133Z,17.10
2023-07-06T21:41:02.166Z,22.63
2023-07-06T21:43:31.635Z,17.92
2023-07-06T21:46:00.679Z,20.75
2023-07-06T21:48:29.733Z,16.48
2023-07-06T21:50:59.368Z,20.30
2023-07-06T21:53:29.669Z,14.20
2023-07-06T21:55:59.942Z,14.38
2023-07-06T21:58:30.021Z,16.65
2023-07-06T22:01:00.507Z,22.52
2023-07-06T22:03:29.787Z,16.83
2023-07-06T22:06:07.155Z,20.35
2023-07-06T22:08:36.918Z,18.25
2023-07-06T22:11:06.916Z,22.05
2023-07-06T22:13:36.536Z,17.25
2023-07-06T22:16:06.300Z,35.83
2023-07-06T22:18:36.086Z,34.35
2023-07-06T22:21:06.008Z,22.08
2023-07-06T22:23:36.856Z,16.77
2023-07-06T22:26:07.172Z,13.55
2023-07-06T22:28:36.260Z,14.98
2023-07-06T22:31:08.018Z,13.02
2023-07-06T22:33:38.762Z,17.23
2023-07-06T22:36:12.249Z,13.80
2023-07-06T22:38:43.113Z,15.48
2023-07-06T22:41:12.273Z,12.23
2023-07-06T22:43:41.593Z,12.15
2023-07-06T22:46:10.773Z,12.15
2023-07-06T22:48:41.851Z,11.00
2023-07-06T22:51:11.314Z,11.18
2023-07-06T22:53:40.497Z,14.07
2023-07-06T22:56:09.479Z,16.30
2023-07-06T22:58:38.450Z,22.75
2023-07-06T23:01:20.609Z,15.02
2023-07-06T23:03:50.116Z,15.30
2023-07-06T23:06:19.477Z,22.27
2023-07-06T23:08:48.514Z,18.08
2023-07-06T23:11:17.547Z,15.55
2023-07-06T23:13:46.710Z,25.33
2023-07-06T23:16:15.726Z,18.38
2023-07-06T23:18:44.718Z,21.08
2023-07-06T23:21:13.719Z,21.75
2023-07-06T23:23:44.966Z,20.20
2023-07-06T23:26:15.414Z,23.67
2023-07-06T23:28:44.826Z,25.58
2023-07-06T23:31:15.945Z,45.55
2023-07-06T23:33:45.027Z,33.33
2023-07-06T23:36:17.637Z,19.10
2023-07-06T23:38:47.899Z,24.15
2023-07-06T23:41:16.823Z,24.88
2023-07-06T23:43:45.928Z,26.73
2023-07-06T23:46:14.957Z,24.33
2023-07-06T23:48:43.933Z,21.73
2023-07-06T23:51:12.981Z,26.85
2023-07-06T23:53:42.251Z,22.05
2023-07-06T23:56:11.712Z,19.33
2023-07-06T23:58:40.888Z,26.80
